Time;durP1;ratioP1;P1;durP2;ratioP2;P2;SDS_P1;SDS_P2;PMS_P1;PMS_P2;Temp;Humidity;BMP_temperature;BMP_pressure;BME280_temperature;BME280_humidity;BME280_pressure;Samples;Min_cycle;Max_cycle;Signal;HPM_P1;HPM_P2
2021/06/19 00:01:55;;;;;;;5.83;5.20;;;26.50;95.80;;;;;;5054044;28;20413;-65
2021/06/19 00:04:21;;;;;;;6.20;4.90;;;26.40;96.00;;;;;;5053708;28;20229;-66
2021/06/19 00:06:46;;;;;;;7.87;5.30;;;26.40;96.30;;;;;;5053961;28;20210;-66
2021/06/19 00:09:12;;;;;;;9.00;5.40;;;26.40;96.40;;;;;;5057319;28;20178;-65
2021/06/19 00:11:38;;;;;;;6.67;5.27;;;26.40;96.50;;;;;;5057314;28;20255;-66
2021/06/19 00:14:03;;;;;;;6.97;5.57;;;26.40;96.60;;;;;;5056829;28;20644;-65
2021/06/19 00:16:29;;;;;;;6.93;4.90;;;26.40;96.70;;;;;;5057269;28;20195;-66
2021/06/19 00:18:54;;;;;;;9.20;6.00;;;26.30;96.90;;;;;;5055675;28;20190;-66
2021/06/19 00:21:20;;;;;;;6.00;5.40;;;26.30;97.10;;;;;;5058162;28;20174;-66
2021/06/19 00:23:45;;;;;;;8.37;4.97;;;26.30;97.10;;;;;;5057409;28;20534;-66
2021/06/19 00:26:11;;;;;;;6.20;5.60;;;26.30;97.20;;;;;;5056876;28;20285;-66
2021/06/19 00:28:37;;;;;;;6.07;4.47;;;26.30;97.20;;;;;;5069736;28;20224;-65
2021/06/19 00:31:04;;;;;;;5.33;4.80;;;26.30;97.30;;;;;;5057022;28;20221;-66
2021/06/19 00:33:31;;;;;;;6.07;4.40;;;26.30;97.50;;;;;;5056800;28;20166;-66
2021/06/19 00:35:56;;;;;;;10.17;4.60;;;26.20;97.60;;;;;;5057667;28;20447;-66
2021/06/19 00:38:22;;;;;;;8.87;4.90;;;26.10;97.80;;;;;;5057583;28;20396;-66
2021/06/19 00:40:47;;;;;;;5.67;4.10;;;26.10;97.90;;;;;;5057421;28;20589;-66
2021/06/19 00:43:13;;;;;;;5.03;4.43;;;26.10;97.90;;;;;;5056967;28;20174;-66
2021/06/19 00:45:39;;;;;;;5.10;4.10;;;26.00;98.10;;;;;;5056942;28;20261;-66
2021/06/19 00:48:12;;;;;;;5.87;4.57;;;25.90;98.20;;;;;;5057220;28;20624;-66
2021/06/19 00:50:39;;;;;;;5.37;4.50;;;25.90;98.20;;;;;;5057283;28;20663;-66
2021/06/19 00:53:05;;;;;;;3.90;3.50;;;25.90;98.20;;;;;;5056687;28;20412;-66
2021/06/19 00:55:31;;;;;;;4.40;3.87;;;25.90;98.20;;;;;;5056498;28;20436;-65
2021/06/19 00:57:57;;;;;;;3.73;3.40;;;25.90;98.40;;;;;;5056804;28;20424;-66
2021/06/19 01:00:24;;;;;;;5.57;3.50;;;25.80;98.30;;;;;;5057320;28;20566;-66
2021/06/19 01:02:54;;;;;;;4.13;3.67;;;25.80;98.70;;;;;;5056864;28;20413;-66
2021/06/19 01:05:20;;;;;;;6.37;3.67;;;25.80;98.40;;;;;;5056781;28;20420;-65
2021/06/19 01:07:46;;;;;;;3.70;3.40;;;25.80;98.50;;;;;;5059610;28;20443;-66
2021/06/19 01:10:12;;;;;;;4.50;3.23;;;25.70;98.30;;;;;;5060034;28;20412;-65
2021/06/19 01:12:41;;;;;;;3.70;2.80;;;25.70;98.50;;;;;;5060062;28;20205;-66
2021/06/19 01:15:07;;;;;;;4.27;2.87;;;25.70;98.40;;;;;;5061609;28;20425;-66
2021/06/19 01:17:32;;;;;;;3.57;3.10;;;25.70;98.40;;;;;;5058025;28;20424;-66
2021/06/19 01:20:07;;;;;;;3.60;3.10;;;25.70;98.50;;;;;;5056761;28;20492;-65
2021/06/19 01:22:34;;;;;;;4.43;3.17;;;25.60;98.70;;;;;;5055580;28;20161;-66
2021/06/19 01:25:00;;;;;;;4.27;3.43;;;25.50;98.80;;;;;;5055873;28;20452;-66
2021/06/19 01:27:29;;;;;;;3.57;3.27;;;25.50;98.90;;;;;;5055663;28;20488;-65
2021/06/19 01:29:57;;;;;;;4.03;3.00;;;25.60;98.90;;;;;;5055637;28;20956;-65
2021/06/19 01:32:27;;;;;;;4.73;3.70;;;25.50;98.90;;;;;;5055663;28;20466;-65
2021/06/19 01:34:53;;;;;;;4.70;2.70;;;25.50;98.70;;;;;;5055639;28;20486;-66
2021/06/19 01:37:19;;;;;;;4.65;3.10;;;25.50;98.80;;;;;;5055509;28;20423;-66
2021/06/19 01:39:44;;;;;;;3.40;3.10;;;25.50;98.70;;;;;;5055450;28;20602;-66
2021/06/19 01:42:10;;;;;;;3.87;3.40;;;25.50;98.50;;;;;;5055827;28;20170;-65
2021/06/19 01:44:36;;;;;;;6.60;3.20;;;25.40;98.50;;;;;;5055614;28;20742;-65
2021/06/19 01:47:01;;;;;;;3.00;2.70;;;25.40;98.50;;;;;;5055120;28;20414;-65
2021/06/19 01:49:37;;;;;;;3.10;2.80;;;25.40;98.30;;;;;;5055348;28;20177;-65
2021/06/19 01:52:05;;;;;;;3.00;2.70;;;25.40;98.20;;;;;;5036133;28;20297;-65
2021/06/19 01:54:40;;;;;;;5.27;3.00;;;25.40;98.10;;;;;;5042301;28;20405;-65
2021/06/19 01:57:07;;;;;;;3.20;2.23;;;25.40;97.70;;;;;;5055647;28;20450;-65
2021/06/19 01:59:33;;;;;;;4.53;2.80;;;25.30;97.70;;;;;;5055514;28;20428;-65
2021/06/19 02:01:59;;;;;;;3.50;2.33;;;25.30;97.60;;;;;;5055342;28;20482;-65
2021/06/19 02:04:26;;;;;;;2.00;1.90;;;25.30;97.40;;;;;;5055227;28;20805;-65
2021/06/19 02:06:52;;;;;;;2.10;2.00;;;25.30;97.30;;;;;;5055053;28;20436;-65
2021/06/19 02:09:18;;;;;;;5.50;2.40;;;25.10;97.30;;;;;;5055079;28;20408;-65
2021/06/19 02:11:44;;;;;;;3.10;2.13;;;25.10;97.40;;;;;;5054833;28;20463;-65
2021/06/19 02:14:12;;;;;;;2.27;2.00;;;25.10;97.30;;;;;;5055219;28;20216;-65
2021/06/19 02:16:39;;;;;;;2.60;2.40;;;25.00;97.50;;;;;;5055356;28;20198;-66
2021/06/19 02:19:04;;;;;;;2.90;2.07;;;25.10;97.60;;;;;;5054769;28;21205;-65
2021/06/19 02:21:30;;;;;;;3.23;2.03;;;25.00;97.60;;;;;;5054662;28;20463;-65
2021/06/19 02:23:55;;;;;;;2.17;1.97;;;24.90;97.60;;;;;;5053905;28;20182;-65
2021/06/19 02:26:21;;;;;;;2.07;1.87;;;24.90;97.70;;;;;;5055307;28;20195;-65
2021/06/19 02:28:46;;;;;;;2.57;1.97;;;24.90;97.70;;;;;;5055455;28;20189;-65
2021/06/19 02:31:12;;;;;;;2.53;2.20;;;24.90;97.50;;;;;;5054213;28;20237;-65
2021/06/19 02:33:38;;;;;;;2.77;1.90;;;24.80;97.70;;;;;;5054511;28;20186;-65
2021/06/19 02:36:04;;;;;;;2.00;1.90;;;24.70;97.90;;;;;;5054953;28;20194;-65
2021/06/19 02:38:29;;;;;;;4.10;1.97;;;24.70;97.90;;;;;;5054245;28;20170;-65
2021/06/19 02:40:55;;;;;;;2.33;2.13;;;24.70;98.10;;;;;;5054360;28;20465;-65
2021/06/19 02:43:21;;;;;;;2.40;2.20;;;24.60;98.20;;;;;;5053703;28;20202;-66
2021/06/19 02:45:47;;;;;;;2.30;2.10;;;24.60;98.40;;;;;;5054701;28;20699;-65
2021/06/19 02:48:13;;;;;;;2.30;2.10;;;24.50;98.60;;;;;;5053111;28;20560;-65
2021/06/19 02:50:42;;;;;;;2.73;2.00;;;24.60;98.70;;;;;;5054265;28;20492;-65
2021/06/19 02:53:09;;;;;;;2.07;1.87;;;24.60;98.60;;;;;;5054108;28;20174;-65
2021/06/19 02:55:37;;;;;;;2.10;1.80;;;24.60;98.60;;;;;;5052965;28;21004;-66
2021/06/19 02:58:04;;;;;;;2.40;2.20;;;24.50;98.60;;;;;;5054167;28;20424;-66
2021/06/19 03:00:30;;;;;;;2.93;2.20;;;24.50;98.70;;;;;;5054300;28;20401;-65
2021/06/19 03:02:55;;;;;;;2.13;1.83;;;24.50;98.70;;;;;;5054457;28;20908;-66
2021/06/19 03:05:25;;;;;;;4.03;2.00;;;24.50;98.70;;;;;;5054841;28;20559;-65
2021/06/19 03:07:51;;;;;;;4.67;2.30;;;24.50;98.80;;;;;;5054874;28;20204;-65
2021/06/19 03:10:20;;;;;;;2.43;2.10;;;24.50;98.80;;;;;;5054876;28;20789;-66
2021/06/19 03:12:45;;;;;;;4.40;2.50;;;24.40;98.90;;;;;;5054077;28;20440;-67
2021/06/19 03:15:12;;;;;;;3.00;2.37;;;24.30;99.00;;;;;;5053584;28;20443;-66
2021/06/19 03:17:37;;;;;;;2.63;2.30;;;24.40;99.10;;;;;;5053419;28;20201;-66
2021/06/19 03:20:09;;;;;;;3.00;2.70;;;24.40;99.10;;;;;;5053717;28;20792;-66
2021/06/19 03:22:47;;;;;;;3.17;2.53;;;24.40;99.10;;;;;;5052832;28;20288;-67
2021/06/19 03:25:15;;;;;;;2.40;2.20;;;24.30;99.20;;;;;;5053437;28;20417;-66
2021/06/19 03:27:42;;;;;;;2.63;2.43;;;24.30;99.40;;;;;;5053171;28;20428;-66
2021/06/19 03:30:09;;;;;;;2.90;2.20;;;24.30;99.40;;;;;;5053890;28;20738;-66
2021/06/19 03:32:37;;;;;;;3.80;2.00;;;24.30;99.40;;;;;;5053224;28;20472;-66
2021/06/19 03:35:04;;;;;;;4.80;2.00;;;24.40;99.30;;;;;;5053902;28;20838;-66
2021/06/19 03:37:30;;;;;;;2.53;1.93;;;24.30;99.50;;;;;;5051675;28;20457;-66
2021/06/19 03:39:55;;;;;;;2.27;1.83;;;24.20;99.70;;;;;;5053616;28;20451;-66
2021/06/19 03:42:21;;;;;;;2.23;2.03;;;24.20;99.80;;;;;;5051495;28;20170;-67
2021/06/19 03:44:46;;;;;;;2.20;2.00;;;24.20;99.70;;;;;;5053557;28;20190;-67
2021/06/19 03:47:12;;;;;;;2.53;1.70;;;24.20;99.70;;;;;;5058305;28;20177;-66
2021/06/19 03:49:37;;;;;;;2.10;1.90;;;24.20;99.70;;;;;;5058084;28;20185;-66
2021/06/19 03:52:03;;;;;;;2.03;1.83;;;24.20;99.90;;;;;;5059719;28;20198;-66
2021/06/19 03:54:28;;;;;;;3.80;2.33;;;24.20;99.80;;;;;;5057478;28;20170;-66
2021/06/19 03:56:54;;;;;;;2.70;2.10;;;24.20;99.90;;;;;;5055956;28;20408;-65
2021/06/19 03:59:19;;;;;;;3.40;2.47;;;24.20;99.90;;;;;;5056489;28;20197;-66
2021/06/19 04:01:45;;;;;;;3.87;2.43;;;24.20;99.60;;;;;;5058058;28;20170;-66
2021/06/19 04:04:10;;;;;;;2.30;2.10;;;24.10;99.70;;;;;;5056916;28;20217;-65
2021/06/19 04:06:36;;;;;;;2.33;2.00;;;24.00;99.80;;;;;;5057718;28;20255;-66
2021/06/19 04:09:03;;;;;;;2.23;1.90;;;24.00;99.90;;;;;;5057783;28;20186;-66
2021/06/19 04:11:28;;;;;;;2.30;2.10;;;23.90;99.90;;;;;;5053426;28;20656;-65
2021/06/19 04:13:54;;;;;;;3.93;2.10;;;23.90;99.90;;;;;;5053198;28;20419;-65
2021/06/19 04:16:19;;;;;;;2.60;1.83;;;23.90;99.90;;;;;;5053312;28;20190;-65
2021/06/19 04:18:45;;;;;;;2.27;2.07;;;23.80;99.90;;;;;;5052799;28;20232;-65
2021/06/19 04:21:10;;;;;;;2.67;2.43;;;23.90;99.90;;;;;;5053368;28;20189;-65
2021/06/19 04:23:36;;;;;;;3.10;1.80;;;23.90;99.90;;;;;;5052593;28;20174;-65
2021/06/19 04:26:02;;;;;;;2.67;2.10;;;24.00;99.90;;;;;;5053376;28;20202;-66
2021/06/19 04:28:29;;;;;;;3.27;2.13;;;23.80;99.90;;;;;;5052805;28;20190;-65
2021/06/19 04:31:01;;;;;;;3.07;2.10;;;23.80;99.90;;;;;;5046091;28;20452;-65
2021/06/19 04:33:27;;;;;;;3.03;2.10;;;23.90;99.90;;;;;;5034012;28;20422;-65
2021/06/19 04:35:54;;;;;;;2.53;2.33;;;23.90;99.90;;;;;;5042855;28;20976;-65
2021/06/19 04:38:20;;;;;;;10.63;3.83;;;24.00;99.90;;;;;;5037430;28;20526;-65
2021/06/19 04:41:07;;;;;;;2.10;1.80;;;24.00;99.90;;;;;;5044109;28;20480;-65
2021/06/19 04:44:20;;;;;;;4.17;2.20;;;24.00;99.90;;;;;;5043046;28;20166;-65
2021/06/19 04:46:18;;;;;;;3.63;2.40;;;24.00;99.90;;;;;;5044002;28;20532;-66
2021/06/19 04:48:44;;;;;;;2.90;2.30;;;24.00;99.90;;;;;;5035556;28;20558;-65
2021/06/19 04:51:12;;;;;;;3.47;2.17;;;23.90;99.90;;;;;;5046276;28;20233;-65
2021/06/19 04:53:37;;;;;;;2.50;2.03;;;23.70;99.90;;;;;;5053390;28;20174;-66
2021/06/19 04:56:03;;;;;;;2.40;2.00;;;23.70;99.90;;;;;;5047239;28;20808;-65
2021/06/19 04:58:29;;;;;;;2.80;2.10;;;23.80;99.90;;;;;;5046862;28;20280;-64
2021/06/19 05:00:55;;;;;;;2.63;2.23;;;23.80;99.90;;;;;;5038516;28;20462;-67
2021/06/19 05:03:23;;;;;;;2.63;1.73;;;23.90;99.90;;;;;;5046593;28;20178;-66
2021/06/19 05:05:50;;;;;;;2.10;1.90;;;23.90;99.90;;;;;;5055674;28;20270;-66
2021/06/19 05:08:15;;;;;;;2.00;1.80;;;24.00;99.90;;;;;;5055063;28;20416;-66
2021/06/19 05:10:41;;;;;;;2.23;2.00;;;23.90;99.90;;;;;;5056054;28;20459;-65
2021/06/19 05:13:06;;;;;;;2.77;1.70;;;23.80;99.90;;;;;;5055652;28;20299;-65
2021/06/19 05:15:32;;;;;;;2.80;2.07;;;23.80;99.90;;;;;;5055488;28;20251;-65
2021/06/19 05:17:57;;;;;;;3.30;1.97;;;23.80;99.90;;;;;;5056595;28;20204;-65
2021/06/19 05:20:27;;;;;;;2.20;2.00;;;23.90;99.90;;;;;;5057948;28;20220;-65
2021/06/19 05:22:53;;;;;;;1.80;1.70;;;23.90;99.90;;;;;;5061951;28;20311;-65
2021/06/19 05:25:19;;;;;;;2.30;2.10;;;23.90;99.90;;;;;;5070997;28;20534;-65
2021/06/19 05:27:45;;;;;;;2.40;2.20;;;24.00;99.90;;;;;;5075047;28;20615;-65
2021/06/19 05:30:11;;;;;;;3.17;2.10;;;24.00;99.90;;;;;;5055529;28;20174;-65
2021/06/19 05:32:37;;;;;;;3.67;2.20;;;24.10;99.90;;;;;;5055325;28;20536;-66
2021/06/19 05:35:03;;;;;;;2.60;2.07;;;24.00;99.90;;;;;;5055351;28;20468;-66
2021/06/19 05:37:28;;;;;;;2.20;2.00;;;24.00;99.90;;;;;;5065554;28;20776;-65
2021/06/19 05:39:54;;;;;;;2.40;2.30;;;24.00;99.90;;;;;;5064310;28;20190;-65
2021/06/19 05:42:21;;;;;;;3.57;2.20;;;23.90;99.90;;;;;;5055721;28;20551;-65
2021/06/19 05:44:46;;;;;;;3.40;2.20;;;24.00;99.90;;;;;;5054929;28;20435;-66
2021/06/19 05:47:12;;;;;;;2.83;2.30;;;24.00;99.90;;;;;;5054892;28;20833;-65
2021/06/19 05:49:37;;;;;;;2.20;2.00;;;23.90;99.90;;;;;;5055287;28;20185;-65
2021/06/19 05:52:04;;;;;;;4.53;2.10;;;23.90;99.90;;;;;;5055250;28;20214;-65
2021/06/19 05:54:35;;;;;;;3.53;3.23;;;24.00;99.90;;;;;;5065264;28;20585;-65
2021/06/19 05:57:01;;;;;;;4.27;2.27;;;24.00;99.90;;;;;;5075396;28;20812;-66
2021/06/19 05:59:27;;;;;;;2.50;2.30;;;24.00;99.90;;;;;;5073169;28;20427;-66
2021/06/19 06:01:52;;;;;;;2.27;1.90;;;24.00;99.90;;;;;;5058563;28;21004;-67
2021/06/19 06:04:18;;;;;;;2.30;2.10;;;24.10;99.90;;;;;;5072797;28;20177;-66
2021/06/19 06:06:43;;;;;;;2.40;2.20;;;24.20;99.90;;;;;;5074176;28;20690;-66
2021/06/19 06:09:10;;;;;;;2.90;1.83;;;24.40;99.90;;;;;;5074550;28;20174;-67
2021/06/19 06:11:35;;;;;;;2.10;1.90;;;24.40;99.90;;;;;;5065811;28;20194;-66
2021/06/19 06:14:01;;;;;;;2.53;2.33;;;24.50;99.90;;;;;;5070484;28;20513;-65
2021/06/19 06:16:26;;;;;;;2.77;2.30;;;24.50;99.80;;;;;;5074077;28;20213;-68
2021/06/19 06:18:52;;;;;;;3.00;2.50;;;24.30;99.90;;;;;;5074481;28;20226;-70
2021/06/19 06:21:17;;;;;;;3.43;2.30;;;24.30;99.80;;;;;;5073457;28;20977;-73
2021/06/19 06:23:43;;;;;;;2.67;2.43;;;24.30;99.90;;;;;;5068297;28;20185;-68
2021/06/19 06:26:08;;;;;;;2.50;2.30;;;24.20;99.90;;;;;;5077369;28;20197;-67
2021/06/19 06:28:34;;;;;;;2.40;2.00;;;24.30;99.90;;;;;;5072465;28;20670;-70
2021/06/19 06:31:00;;;;;;;2.40;2.20;;;24.30;99.80;;;;;;5057832;28;20166;-68
2021/06/19 06:33:26;;;;;;;2.13;1.93;;;24.30;99.80;;;;;;5057016;28;20170;-68
2021/06/19 06:35:53;;;;;;;4.73;2.90;;;24.20;99.80;;;;;;5071866;28;20210;-66
2021/06/19 06:38:19;;;;;;;2.47;2.17;;;24.20;99.80;;;;;;5061271;28;20462;-68
2021/06/19 06:40:44;;;;;;;5.30;2.47;;;24.20;99.90;;;;;;5079489;28;20412;-70
2021/06/19 06:43:10;;;;;;;2.40;2.20;;;24.20;99.90;;;;;;5069287;28;20205;-72
2021/06/19 06:45:36;;;;;;;2.63;2.07;;;24.30;99.90;;;;;;5070791;28;20193;-67
2021/06/19 06:48:01;;;;;;;2.40;2.13;;;24.30;99.70;;;;;;5078579;28;20213;-68
2021/06/19 06:50:27;;;;;;;3.23;2.17;;;24.40;99.70;;;;;;5063422;28;20169;-69
2021/06/19 06:52:53;;;;;;;2.03;1.83;;;24.50;99.40;;;;;;5076326;28;20675;-67
2021/06/19 06:55:19;;;;;;;2.80;1.93;;;24.50;99.50;;;;;;5069048;28;20668;-67
2021/06/19 06:57:45;;;;;;;4.65;1.90;;;24.60;99.40;;;;;;5065837;28;20310;-69
2021/06/19 07:00:11;;;;;;;2.20;1.83;;;24.70;99.10;;;;;;5075733;28;20223;-67
2021/06/19 07:02:41;;;;;;;2.60;2.03;;;24.80;98.50;;;;;;5080908;28;20956;-69
2021/06/19 07:05:08;;;;;;;3.80;1.93;;;24.80;98.80;;;;;;5078449;28;20463;-70
2021/06/19 07:07:35;;;;;;;2.97;2.50;;;24.80;98.70;;;;;;5076945;28;20876;-66
2021/06/19 07:10:00;;;;;;;3.30;2.00;;;24.90;98.80;;;;;;5076327;28;20427;-69
2021/06/19 07:12:26;;;;;;;2.27;1.73;;;24.90;98.50;;;;;;5076187;28;20487;-67
2021/06/19 07:14:51;;;;;;;2.70;1.90;;;25.00;98.80;;;;;;5073434;28;20205;-68
2021/06/19 07:17:17;;;;;;;1.97;1.77;;;25.00;98.70;;;;;;5065866;28;20224;-66
2021/06/19 07:19:43;;;;;;;2.90;2.20;;;24.90;98.50;;;;;;5073740;28;20185;-67
2021/06/19 07:22:09;;;;;;;3.93;2.73;;;25.00;98.80;;;;;;5073587;28;20184;-71
2021/06/19 07:24:36;;;;;;;4.53;2.43;;;24.90;98.40;;;;;;5074062;28;20423;-67
2021/06/19 07:27:03;;;;;;;4.80;1.90;;;24.80;98.80;;;;;;5065887;28;20193;-66
2021/06/19 07:29:29;;;;;;;2.33;2.23;;;24.80;98.80;;;;;;5073085;28;20936;-75
2021/06/19 07:31:54;;;;;;;3.67;2.53;;;24.90;98.60;;;;;;5052135;28;20527;-75
2021/06/19 07:34:20;;;;;;;3.90;2.57;;;24.90;98.50;;;;;;5052707;28;20301;-74
2021/06/19 07:36:45;;;;;;;2.20;2.00;;;24.90;98.70;;;;;;5060856;28;20274;-74
2021/06/19 07:39:12;;;;;;;2.90;2.13;;;25.00;98.60;;;;;;5074923;28;20618;-75
2021/06/19 07:41:38;;;;;;;2.60;2.00;;;25.00;98.50;;;;;;5074785;28;20178;-74
2021/06/19 07:44:04;;;;;;;3.20;2.40;;;25.10;98.50;;;;;;5073858;28;20514;-76
2021/06/19 07:46:30;;;;;;;2.87;2.27;;;25.20;98.40;;;;;;5074128;28;20209;-74
2021/06/19 07:48:55;;;;;;;3.10;2.80;;;25.30;98.10;;;;;;5059767;28;20450;-73
2021/06/19 07:51:25;;;;;;;3.20;2.33;;;25.40;98.10;;;;;;5068617;28;20717;-75
2021/06/19 07:54:01;;;;;;;2.00;1.90;;;25.50;97.30;;;;;;5064693;28;20174;-75
2021/06/19 07:56:27;;;;;;;2.90;1.93;;;25.50;96.50;;;;;;5041668;28;20824;-74
2021/06/19 07:58:52;;;;;;;2.67;2.37;;;25.30;96.40;;;;;;5066405;28;20436;-75
2021/06/19 08:01:18;;;;;;;1.87;1.70;;;25.30;96.50;;;;;;5054227;28;20194;-75
2021/06/19 08:03:44;;;;;;;3.00;1.90;;;25.30;95.80;;;;;;5046320;28;20231;-72
2021/06/19 08:06:09;;;;;;;1.90;1.70;;;25.10;95.50;;;;;;5054685;28;20254;-72
2021/06/19 08:08:35;;;;;;;2.43;1.70;;;25.10;95.30;;;;;;5070933;28;20642;-72
2021/06/19 08:11:00;;;;;;;3.00;2.03;;;25.20;95.40;;;;;;5057896;28;20190;-73
2021/06/19 08:13:26;;;;;;;2.27;1.70;;;25.30;95.70;;;;;;5051062;28;20920;-74
2021/06/19 08:15:55;;;;;;;2.00;1.70;;;25.40;95.40;;;;;;5055241;28;20232;-73
2021/06/19 08:18:21;;;;;;;2.77;1.67;;;25.50;95.30;;;;;;5071988;28;20174;-71
2021/06/19 08:20:47;;;;;;;2.30;1.90;;;25.70;95.10;;;;;;5059149;28;20464;-75
2021/06/19 08:23:12;;;;;;;2.37;1.70;;;25.80;95.00;;;;;;5067202;28;20433;-73
2021/06/19 08:25:38;;;;;;;2.90;2.00;;;25.90;94.90;;;;;;5055743;28;20202;-73
2021/06/19 08:28:04;;;;;;;4.33;1.80;;;26.00;94.70;;;;;;5070691;28;20201;-73
2021/06/19 08:30:29;;;;;;;2.20;1.80;;;26.00;94.70;;;;;;5066927;28;20269;-73
2021/06/19 08:32:55;;;;;;;2.07;1.87;;;26.00;94.40;;;;;;5072247;28;20490;-72
2021/06/19 08:35:20;;;;;;;2.17;1.97;;;26.00;94.50;;;;;;5067812;28;20213;-73
2021/06/19 08:37:46;;;;;;;4.47;2.20;;;26.10;94.40;;;;;;5051566;28;20202;-72
2021/06/19 08:40:12;;;;;;;1.90;1.80;;;26.30;94.60;;;;;;5061355;28;20190;-73
2021/06/19 08:42:37;;;;;;;3.13;2.00;;;26.30;94.50;;;;;;5070182;28;20186;-74
2021/06/19 08:45:04;;;;;;;5.70;2.60;;;26.20;94.70;;;;;;5076169;28;20448;-74
2021/06/19 08:47:36;;;;;;;2.57;1.90;;;26.20;94.60;;;;;;5068164;28;20205;-72
2021/06/19 08:50:06;;;;;;;3.50;1.80;;;26.30;93.90;;;;;;5047995;28;20565;-71
2021/06/19 08:52:33;;;;;;;2.70;1.67;;;26.40;93.40;;;;;;5051645;28;20809;-71
2021/06/19 08:54:59;;;;;;;3.63;1.50;;;26.60;93.00;;;;;;5072691;28;20440;-71
2021/06/19 08:57:24;;;;;;;1.90;1.60;;;26.80;92.30;;;;;;5048742;28;20423;-71
2021/06/19 08:59:50;;;;;;;2.43;1.60;;;27.00;92.00;;;;;;5062870;28;20252;-72
2021/06/19 09:02:17;;;;;;;1.57;1.33;;;27.20;91.90;;;;;;5059658;28;20189;-72
2021/06/19 09:05:07;;;;;;;2.03;1.60;;;27.30;91.20;;;;;;5054254;28;20213;-72
2021/06/19 09:07:46;;;;;;;2.00;1.70;;;27.20;91.00;;;;;;5062622;28;20424;-71
2021/06/19 09:10:32;;;;;;;1.60;1.50;;;27.20;91.00;;;;;;5056969;28;20432;-72
2021/06/19 09:13:13;;;;;;;2.17;1.20;;;27.10;90.10;;;;;;5046149;28;20459;-71
2021/06/19 09:15:40;;;;;;;4.30;1.53;;;26.90;90.20;;;;;;5068550;28;20448;-72
2021/06/19 09:18:17;;;;;;;3.57;2.10;;;27.00;90.40;;;;;;5052628;28;20511;-72
2021/06/19 09:20:48;;;;;;;3.00;1.90;;;27.00;90.00;;;;;;5067878;28;20427;-71
2021/06/19 09:23:14;;;;;;;1.97;1.77;;;27.00;90.30;;;;;;5058409;28;20452;-72
2021/06/19 09:25:40;;;;;;;3.60;2.00;;;27.10;90.30;;;;;;5071965;28;20517;-72
2021/06/19 09:28:08;;;;;;;1.80;1.53;;;27.10;90.40;;;;;;5072222;28;20694;-72
2021/06/19 09:30:34;;;;;;;2.20;1.77;;;27.00;90.70;;;;;;5058634;28;20190;-73
2021/06/19 09:33:07;;;;;;;2.63;1.80;;;27.10;90.60;;;;;;5061787;28;20513;-72
2021/06/19 09:35:36;;;;;;;2.53;1.80;;;27.20;90.30;;;;;;5061876;28;20438;-71
2021/06/19 09:38:04;;;;;;;3.30;2.00;;;27.30;90.40;;;;;;5055248;28;20563;-72
2021/06/19 09:40:33;;;;;;;5.00;1.90;;;27.30;90.50;;;;;;5054973;28;20424;-72
2021/06/19 09:43:13;;;;;;;3.03;2.73;;;27.40;90.50;;;;;;5060236;28;20734;-71
2021/06/19 09:45:41;;;;;;;2.73;2.00;;;27.40;90.80;;;;;;5062953;28;21035;-71
2021/06/19 09:48:23;;;;;;;1.60;1.50;;;27.50;90.00;;;;;;5065339;28;20432;-71
2021/06/19 09:51:16;;;;;;;2.03;1.87;;;27.60;88.10;;;;;;5066657;28;20487;-71
2021/06/19 09:53:45;;;;;;;4.50;1.47;;;27.70;88.70;;;;;;5060377;28;20431;-73
2021/06/19 09:56:12;;;;;;;2.30;1.80;;;27.80;89.10;;;;;;5067097;28;20419;-71
2021/06/19 09:58:44;;;;;;;2.10;1.80;;;27.70;89.20;;;;;;5054885;28;20467;-72
2021/06/19 10:01:17;;;;;;;1.87;1.60;;;27.60;88.80;;;;;;5064012;28;20431;-73
2021/06/19 10:03:50;;;;;;;1.93;1.50;;;27.70;88.60;;;;;;5061886;28;20416;-72
2021/06/19 10:06:16;;;;;;;3.20;2.07;;;27.80;88.40;;;;;;5071604;28;20427;-72
2021/06/19 10:08:44;;;;;;;1.63;1.53;;;27.80;88.60;;;;;;5071180;28;20897;-73
2021/06/19 10:11:11;;;;;;;1.73;1.63;;;27.70;87.30;;;;;;5069209;28;20189;-71
2021/06/19 10:13:37;;;;;;;4.43;2.07;;;27.60;87.00;;;;;;5060505;28;20447;-72
2021/06/19 10:16:03;;;;;;;3.30;1.50;;;27.70;86.30;;;;;;5068913;28;20893;-73
2021/06/19 10:18:30;;;;;;;2.10;1.63;;;27.70;86.10;;;;;;5070520;28;20780;-73
2021/06/19 10:20:56;;;;;;;1.50;1.40;;;27.80;86.00;;;;;;5070554;28;20461;-73
2021/06/19 10:23:21;;;;;;;1.80;1.70;;;27.80;85.40;;;;;;5068368;28;20423;-73
2021/06/19 10:25:48;;;;;;;2.13;1.73;;;27.80;85.40;;;;;;5059337;28;20319;-71
2021/06/19 10:28:17;;;;;;;2.97;1.93;;;27.70;85.80;;;;;;5064687;28;20192;-72
2021/06/19 10:30:43;;;;;;;1.93;1.77;;;27.60;85.60;;;;;;5054119;28;20922;-73
2021/06/19 10:33:32;;;;;;;1.60;1.50;;;27.60;85.20;;;;;;5068338;28;20576;-71
2021/06/19 10:36:01;;;;;;;2.10;1.50;;;27.70;83.70;;;;;;5042526;28;20452;-71
2021/06/19 10:38:27;;;;;;;2.73;1.87;;;27.80;82.50;;;;;;5037310;28;20417;-73
2021/06/19 10:40:59;;;;;;;3.83;1.83;;;27.90;81.90;;;;;;5043634;28;20424;-73
2021/06/19 10:43:26;;;;;;;3.30;1.70;;;27.90;82.40;;;;;;5056456;28;20546;-73
2021/06/19 10:45:54;;;;;;;2.20;1.43;;;27.90;82.00;;;;;;5048006;28;20461;-73
2021/06/19 10:48:32;;;;;;;3.78;2.03;;;27.80;82.30;;;;;;5065584;28;20497;-73
2021/06/19 10:51:18;;;;;;;3.20;1.47;;;27.80;82.70;;;;;;5070136;28;20247;-72
2021/06/19 10:54:14;;;;;;;3.40;1.63;;;28.00;82.60;;;;;;5064629;28;20849;-72
2021/06/19 10:56:50;;;;;;;2.00;1.63;;;27.90;82.90;;;;;;5066906;28;20458;-72
2021/06/19 10:59:29;;;;;;;3.50;1.80;;;27.90;83.30;;;;;;5068902;28;20427;-72
2021/06/19 11:01:57;;;;;;;2.00;1.60;;;28.00;83.40;;;;;;5070146;28;20419;-73
2021/06/19 11:04:35;;;;;;;2.30;1.50;;;28.00;83.20;;;;;;5069900;28;20403;-73
2021/06/19 11:07:02;;;;;;;3.03;1.60;;;27.90;82.90;;;;;;5047840;28;20420;-73
2021/06/19 11:09:39;;;;;;;2.73;1.80;;;27.90;83.10;;;;;;5058937;28;20418;-74
2021/06/19 11:12:09;;;;;;;2.03;1.80;;;28.00;83.00;;;;;;5058312;28;20468;-72
2021/06/19 11:14:40;;;;;;;3.03;1.73;;;28.10;82.00;;;;;;5043699;28;20424;-73
2021/06/19 11:17:15;;;;;;;4.80;1.80;;;28.20;82.60;;;;;;5046751;28;20174;-73
2021/06/19 11:19:42;;;;;;;2.60;1.80;;;28.00;82.60;;;;;;5053213;28;20754;-74
2021/06/19 11:22:29;;;;;;;2.77;1.60;;;27.90;83.80;;;;;;5033340;28;20206;-73
2021/06/19 11:25:14;;;;;;;3.30;1.90;;;28.00;84.10;;;;;;5032485;28;20429;-73
2021/06/19 11:27:53;;;;;;;1.97;1.73;;;28.10;83.50;;;;;;5045160;28;20409;-73
2021/06/19 11:30:34;;;;;;;2.70;2.30;;;28.20;83.10;;;;;;5052618;28;20434;-73
2021/06/19 11:33:21;;;;;;;3.73;2.07;;;28.20;83.10;;;;;;5052095;28;20872;-74
2021/06/19 11:35:49;;;;;;;2.37;2.00;;;28.20;83.40;;;;;;5052998;28;20523;-73
2021/06/19 11:38:15;;;;;;;3.30;1.67;;;28.30;83.60;;;;;;5054574;28;20471;-73
2021/06/19 11:40:42;;;;;;;2.93;2.07;;;28.40;83.00;;;;;;5053861;28;20491;-73
2021/06/19 11:43:10;;;;;;;1.70;1.40;;;28.50;81.80;;;;;;5053351;28;20405;-73
2021/06/19 11:45:37;;;;;;;1.93;1.57;;;28.50;79.00;;;;;;5054032;28;20442;-73
2021/06/19 11:48:04;;;;;;;2.07;1.40;;;28.60;77.60;;;;;;5052289;28;20433;-74
2021/06/19 11:50:39;;;;;;;1.93;1.73;;;28.60;76.40;;;;;;5053849;28;20432;-73
2021/06/19 11:53:23;;;;;;;2.20;1.43;;;28.70;76.00;;;;;;5053541;28;20471;-73
2021/06/19 11:55:50;;;;;;;2.53;1.50;;;28.80;75.40;;;;;;5053551;28;20452;-73
2021/06/19 11:58:16;;;;;;;3.60;1.70;;;28.90;75.50;;;;;;5053304;28;20514;-73
2021/06/19 12:00:55;;;;;;;2.40;1.70;;;28.90;75.20;;;;;;5053004;28;20885;-73
2021/06/19 12:03:24;;;;;;;2.80;1.70;;;28.80;75.40;;;;;;5056747;28;20524;-74
2021/06/19 12:05:50;;;;;;;2.90;1.87;;;28.70;75.70;;;;;;5059832;28;20428;-71
2021/06/19 12:08:24;;;;;;;1.80;1.70;;;28.60;76.10;;;;;;5062808;28;20494;-73
2021/06/19 12:10:49;;;;;;;2.30;2.00;;;28.70;76.00;;;;;;5056255;28;20217;-73
2021/06/19 12:13:15;;;;;;;2.00;1.80;;;28.70;75.60;;;;;;5057800;28;20484;-73
2021/06/19 12:15:40;;;;;;;4.77;1.70;;;28.80;75.10;;;;;;5057561;28;20193;-73
2021/06/19 12:18:17;;;;;;;2.57;1.50;;;28.80;75.50;;;;;;5055795;28;20274;-73
2021/06/19 12:20:42;;;;;;;1.90;1.70;;;28.90;75.70;;;;;;5057291;28;20150;-74
2021/06/19 12:23:15;;;;;;;2.40;2.20;;;28.90;75.70;;;;;;5057068;28;20417;-73
2021/06/19 12:25:41;;;;;;;2.60;2.30;;;29.00;75.60;;;;;;5057475;28;20636;-72
2021/06/19 12:28:20;;;;;;;2.50;1.90;;;29.20;75.40;;;;;;5057133;28;20424;-73
2021/06/19 12:30:56;;;;;;;2.27;1.70;;;29.30;75.00;;;;;;5057659;28;20232;-74
2021/06/19 12:33:24;;;;;;;2.37;2.17;;;29.30;74.00;;;;;;5056720;28;20462;-73
2021/06/19 12:35:50;;;;;;;4.50;2.17;;;29.10;74.10;;;;;;5056510;28;20440;-73
2021/06/19 12:38:18;;;;;;;1.90;1.67;;;29.20;74.50;;;;;;5056772;28;20969;-73
2021/06/19 12:40:44;;;;;;;2.83;2.20;;;29.20;75.10;;;;;;5056647;28;20182;-73
2021/06/19 12:43:10;;;;;;;2.40;2.00;;;29.30;75.40;;;;;;5056901;28;20419;-74
2021/06/19 12:45:41;;;;;;;2.30;2.10;;;29.30;75.20;;;;;;5056671;28;20217;-73
2021/06/19 12:48:36;;;;;;;2.00;1.80;;;29.40;74.90;;;;;;5056421;28;20178;-73
2021/06/19 12:51:03;;;;;;;2.27;1.83;;;29.60;74.10;;;;;;5057183;28;20910;-73
2021/06/19 12:53:33;;;;;;;2.67;2.00;;;29.70;72.50;;;;;;5061520;28;20421;-73